sensor_id;sensor_type;location;lat;lon;timestamp;temperature;humidity
62583;DHT22;48641;51.676;5.808;2023-07-28T00:02:00;22.20;58.10
62583;DHT22;48641;51.676;5.808;2023-07-28T00:04:25;22.20;58.10
62583;DHT22;48641;51.676;5.808;2023-07-28T00:06:51;22.20;58.10
62583;DHT22;48641;51.676;5.808;2023-07-28T00:09:16;22.20;58.10
62583;DHT22;48641;51.676;5.808;2023-07-28T00:11:42;22.20;58.10
62583;DHT22;48641;51.676;5.808;2023-07-28T00:14:08;22.20;58.20
62583;DHT22;48641;51.676;5.808;2023-07-28T00:16:33;22.20;58.20
62583;DHT22;48641;51.676;5.808;2023-07-28T00:18:59;22.20;58.20
62583;DHT22;48641;51.676;5.808;2023-07-28T00:21:25;22.20;58.20
62583;DHT22;48641;51.676;5.808;2023-07-28T00:23:51;22.20;58.20
62583;DHT22;48641;51.676;5.808;2023-07-28T00:26:16;22.20;58.20
62583;DHT22;48641;51.676;5.808;2023-07-28T00:28:42;22.20;58.20
62583;DHT22;48641;51.676;5.808;2023-07-28T00:31:08;22.20;58.20
62583;DHT22;48641;51.676;5.808;2023-07-28T00:33:33;22.20;58.10
62583;DHT22;48641;51.676;5.808;2023-07-28T00:35:59;22.20;58.20
62583;DHT22;48641;51.676;5.808;2023-07-28T00:38:24;22.20;58.20
62583;DHT22;48641;51.676;5.808;2023-07-28T00:40:50;22.20;58.20
62583;DHT22;48641;51.676;5.808;2023-07-28T00:43:16;22.20;58.10
62583;DHT22;48641;51.676;5.808;2023-07-28T00:45:41;22.20;58.10
62583;DHT22;48641;51.676;5.808;2023-07-28T00:48:11;22.20;58.20
62583;DHT22;48641;51.676;5.808;2023-07-28T00:50:39;22.20;58.20
62583;DHT22;48641;51.676;5.808;2023-07-28T00:53:05;22.20;58.30
62583;DHT22;48641;51.676;5.808;2023-07-28T00:55:31;22.20;58.30
62583;DHT22;48641;51.676;5.808;2023-07-28T00:57:57;22.20;58.30
62583;DHT22;48641;51.676;5.808;2023-07-28T01:00:22;22.20;58.30
62583;DHT22;48641;51.676;5.808;2023-07-28T01:02:48;22.20;58.30
62583;DHT22;48641;51.676;5.808;2023-07-28T01:05:13;22.20;58.40
62583;DHT22;48641;51.676;5.808;2023-07-28T01:07:53;22.20;58.20
62583;DHT22;48641;51.676;5.808;2023-07-28T01:10:26;22.20;58.10
62583;DHT22;48641;51.676;5.808;2023-07-28T01:12:53;22.20;58.20
62583;DHT22;48641;51.676;5.808;2023-07-28T01:15:19;22.20;58.10
62583;DHT22;48641;51.676;5.808;2023-07-28T01:17:45;22.20;58.10
62583;DHT22;48641;51.676;5.808;2023-07-28T01:20:11;22.20;58.00
62583;DHT22;48641;51.676;5.808;2023-07-28T01:27:53;22.20;58.20
62583;DHT22;48641;51.676;5.808;2023-07-28T01:30:19;22.20;58.30
62583;DHT22;48641;51.676;5.808;2023-07-28T01:32:47;22.10;58.20
62583;DHT22;48641;51.676;5.808;2023-07-28T01:35:13;22.10;58.30
62583;DHT22;48641;51.676;5.808;2023-07-28T01:37:38;22.10;58.30
62583;DHT22;48641;51.676;5.808;2023-07-28T01:40:04;22.20;58.30
62583;DHT22;48641;51.676;5.808;2023-07-28T01:42:30;22.10;58.20
62583;DHT22;48641;51.676;5.808;2023-07-28T01:44:56;22.20;58.20
62583;DHT22;48641;51.676;5.808;2023-07-28T01:47:21;22.20;58.00
62583;DHT22;48641;51.676;5.808;2023-07-28T01:49:47;22.20;58.00
62583;DHT22;48641;51.676;5.808;2023-07-28T01:52:12;22.20;58.10
62583;DHT22;48641;51.676;5.808;2023-07-28T01:54:38;22.20;58.00
62583;DHT22;48641;51.676;5.808;2023-07-28T01:57:04;22.20;58.00
62583;DHT22;48641;51.676;5.808;2023-07-28T01:59:29;22.20;58.00
62583;DHT22;48641;51.676;5.808;2023-07-28T02:01:55;22.20;58.00
62583;DHT22;48641;51.676;5.808;2023-07-28T02:04:21;22.20;58.00
62583;DHT22;48641;51.676;5.808;2023-07-28T02:06:46;22.20;58.00
62583;DHT22;48641;51.676;5.808;2023-07-28T02:09:12;22.20;58.00
62583;DHT22;48641;51.676;5.808;2023-07-28T02:11:38;22.20;58.10
62583;DHT22;48641;51.676;5.808;2023-07-28T02:14:04;22.10;58.10
62583;DHT22;48641;51.676;5.808;2023-07-28T02:16:29;22.20;58.20
62583;DHT22;48641;51.676;5.808;2023-07-28T02:18:56;22.10;58.10
62583;DHT22;48641;51.676;5.808;2023-07-28T02:21:21;22.10;58.10
62583;DHT22;48641;51.676;5.808;2023-07-28T02:23:48;22.10;58.20
62583;DHT22;48641;51.676;5.808;2023-07-28T02:26:13;22.10;58.10
62583;DHT22;48641;51.676;5.808;2023-07-28T02:28:39;22.20;58.00
62583;DHT22;48641;51.676;5.808;2023-07-28T02:31:05;22.20;58.00
62583;DHT22;48641;51.676;5.808;2023-07-28T02:33:30;22.20;58.00
62583;DHT22;48641;51.676;5.808;2023-07-28T02:35:57;22.20;58.00
62583;DHT22;48641;51.676;5.808;2023-07-28T02:38:23;22.20;57.80
62583;DHT22;48641;51.676;5.808;2023-07-28T02:40:49;22.20;57.80
62583;DHT22;48641;51.676;5.808;2023-07-28T02:43:14;22.20;57.90
62583;DHT22;48641;51.676;5.808;2023-07-28T02:45:40;22.10;57.80
62583;DHT22;48641;51.676;5.808;2023-07-28T02:48:05;22.10;57.90
62583;DHT22;48641;51.676;5.808;2023-07-28T02:50:31;22.10;57.90
62583;DHT22;48641;51.676;5.808;2023-07-28T02:52:57;22.10;58.00
62583;DHT22;48641;51.676;5.808;2023-07-28T02:55:22;22.10;58.10
62583;DHT22;48641;51.676;5.808;2023-07-28T02:57:48;22.10;58.10
62583;DHT22;48641;51.676;5.808;2023-07-28T03:00:13;22.10;58.10
62583;DHT22;48641;51.676;5.808;2023-07-28T03:02:39;22.10;58.20
62583;DHT22;48641;51.676;5.808;2023-07-28T03:05:05;22.10;58.30
62583;DHT22;48641;51.676;5.808;2023-07-28T03:07:31;22.10;58.20
62583;DHT22;48641;51.676;5.808;2023-07-28T03:09:57;22.10;58.10
62583;DHT22;48641;51.676;5.808;2023-07-28T03:12:22;22.20;58.10
62583;DHT22;48641;51.676;5.808;2023-07-28T03:14:48;22.10;57.90
62583;DHT22;48641;51.676;5.808;2023-07-28T03:17:13;22.20;57.90
62583;DHT22;48641;51.676;5.808;2023-07-28T03:19:39;22.20;57.90
62583;DHT22;48641;51.676;5.808;2023-07-28T03:22:05;22.20;58.00
62583;DHT22;48641;51.676;5.808;2023-07-28T03:24:30;22.10;57.90
62583;DHT22;48641;51.676;5.808;2023-07-28T03:26:56;22.10;58.00
62583;DHT22;48641;51.676;5.808;2023-07-28T03:29:22;22.10;58.00
62583;DHT22;48641;51.676;5.808;2023-07-28T03:31:47;22.10;58.10
62583;DHT22;48641;51.676;5.808;2023-07-28T03:34:13;22.10;58.10
62583;DHT22;48641;51.676;5.808;2023-07-28T03:36:38;22.10;58.20
62583;DHT22;48641;51.676;5.808;2023-07-28T03:39:04;22.10;58.30
62583;DHT22;48641;51.676;5.808;2023-07-28T03:41:30;22.10;58.30
62583;DHT22;48641;51.676;5.808;2023-07-28T03:43:55;22.10;58.30
62583;DHT22;48641;51.676;5.808;2023-07-28T03:46:21;22.10;58.30
62583;DHT22;48641;51.676;5.808;2023-07-28T03:48:47;22.10;58.20
62583;DHT22;48641;51.676;5.808;2023-07-28T03:51:12;22.10;58.20
62583;DHT22;48641;51.676;5.808;2023-07-28T03:53:38;22.10;58.10
62583;DHT22;48641;51.676;5.808;2023-07-28T03:56:04;22.10;58.10
62583;DHT22;48641;51.676;5.808;2023-07-28T03:58:29;22.10;58.00
62583;DHT22;48641;51.676;5.808;2023-07-28T04:00:55;22.10;58.10
62583;DHT22;48641;51.676;5.808;2023-07-28T04:03:21;22.10;58.00
62583;DHT22;48641;51.676;5.808;2023-07-28T04:05:46;22.10;58.00
62583;DHT22;48641;51.676;5.808;2023-07-28T04:08:12;22.10;58.10
62583;DHT22;48641;51.676;5.808;2023-07-28T04:10:38;22.10;58.00
62583;DHT22;48641;51.676;5.808;2023-07-28T04:13:03;22.10;58.10
62583;DHT22;48641;51.676;5.808;2023-07-28T04:15:29;22.10;58.10
62583;DHT22;48641;51.676;5.808;2023-07-28T04:17:54;22.10;58.30
62583;DHT22;48641;51.676;5.808;2023-07-28T04:20:20;22.10;58.30
62583;DHT22;48641;51.676;5.808;2023-07-28T04:22:46;22.10;58.30
62583;DHT22;48641;51.676;5.808;2023-07-28T04:25:12;22.10;58.30
62583;DHT22;48641;51.676;5.808;2023-07-28T04:27:37;22.10;58.30
62583;DHT22;48641;51.676;5.808;2023-07-28T04:30:03;22.10;58.30
62583;DHT22;48641;51.676;5.808;2023-07-28T04:32:29;22.10;58.20
62583;DHT22;48641;51.676;5.808;2023-07-28T04:34:55;22.10;58.20
62583;DHT22;48641;51.676;5.808;2023-07-28T04:37:21;22.10;58.20
62583;DHT22;48641;51.676;5.808;2023-07-28T04:39:46;22.10;58.30
62583;DHT22;48641;51.676;5.808;2023-07-28T04:42:12;22.10;58.20
62583;DHT22;48641;51.676;5.808;2023-07-28T04:44:38;22.10;58.20
62583;DHT22;48641;51.676;5.808;2023-07-28T04:47:05;22.10;58.20
62583;DHT22;48641;51.676;5.808;2023-07-28T04:49:30;22.10;58.10
62583;DHT22;48641;51.676;5.808;2023-07-28T04:51:56;22.10;58.30
62583;DHT22;48641;51.676;5.808;2023-07-28T04:54:22;22.10;58.40
62583;DHT22;48641;51.676;5.808;2023-07-28T04:56:47;22.10;58.60
62583;DHT22;48641;51.676;5.808;2023-07-28T04:59:15;22.10;58.60
62583;DHT22;48641;51.676;5.808;2023-07-28T05:01:41;22.10;58.70
62583;DHT22;48641;51.676;5.808;2023-07-28T05:04:06;22.10;59.20
62583;DHT22;48641;51.676;5.808;2023-07-28T05:06:32;22.10;59.10
62583;DHT22;48641;51.676;5.808;2023-07-28T05:08:57;22.10;59.00
62583;DHT22;48641;51.676;5.808;2023-07-28T05:11:23;22.10;58.90
62583;DHT22;48641;51.676;5.808;2023-07-28T05:13:49;22.10;59.00
62583;DHT22;48641;51.676;5.808;2023-07-28T05:16:14;22.10;59.20
62583;DHT22;48641;51.676;5.808;2023-07-28T05:18:40;22.10;59.10
62583;DHT22;48641;51.676;5.808;2023-07-28T05:21:08;22.10;58.90
62583;DHT22;48641;51.676;5.808;2023-07-28T05:23:34;22.10;58.80
62583;DHT22;48641;51.676;5.808;2023-07-28T05:25:59;22.10;58.80
62583;DHT22;48641;51.676;5.808;2023-07-28T05:28:25;22.10;58.70
62583;DHT22;48641;51.676;5.808;2023-07-28T05:30:51;22.10;58.60
62583;DHT22;48641;51.676;5.808;2023-07-28T05:33:16;22.10;58.50
62583;DHT22;48641;51.676;5.808;2023-07-28T05:35:42;22.10;58.50
62583;DHT22;48641;51.676;5.808;2023-07-28T05:38:07;22.10;58.50
62583;DHT22;48641;51.676;5.808;2023-07-28T05:40:33;22.10;58.50
62583;DHT22;48641;51.676;5.808;2023-07-28T05:42:59;22.10;58.60
62583;DHT22;48641;51.676;5.808;2023-07-28T05:45:24;22.10;58.70
62583;DHT22;48641;51.676;5.808;2023-07-28T05:47:50;22.10;58.60
62583;DHT22;48641;51.676;5.808;2023-07-28T05:50:16;22.10;58.80
62583;DHT22;48641;51.676;5.808;2023-07-28T05:52:41;22.10;59.00
62583;DHT22;48641;51.676;5.808;2023-07-28T05:55:07;22.10;59.10
62583;DHT22;48641;51.676;5.808;2023-07-28T05:57:33;22.10;59.00
62583;DHT22;48641;51.676;5.808;2023-07-28T05:59:58;22.10;58.80
62583;DHT22;48641;51.676;5.808;2023-07-28T06:02:24;22.00;59.70
62583;DHT22;48641;51.676;5.808;2023-07-28T06:04:49;22.00;58.80
62583;DHT22;48641;51.676;5.808;2023-07-28T06:07:15;22.00;59.00
62583;DHT22;48641;51.676;5.808;2023-07-28T06:09:41;22.00;59.00
62583;DHT22;48641;51.676;5.808;2023-07-28T06:12:06;22.10;59.00
62583;DHT22;48641;51.676;5.808;2023-07-28T06:14:32;22.10;58.80
62583;DHT22;48641;51.676;5.808;2023-07-28T06:16:58;22.10;58.70
62583;DHT22;48641;51.676;5.808;2023-07-28T06:19:24;22.10;58.70
62583;DHT22;48641;51.676;5.808;2023-07-28T06:21:53;22.10;58.70
62583;DHT22;48641;51.676;5.808;2023-07-28T06:24:19;22.10;58.70
62583;DHT22;48641;51.676;5.808;2023-07-28T06:26:45;22.10;58.70
62583;DHT22;48641;51.676;5.808;2023-07-28T06:29:11;22.10;58.70
62583;DHT22;48641;51.676;5.808;2023-07-28T06:31:36;22.10;58.70
62583;DHT22;48641;51.676;5.808;2023-07-28T06:34:02;22.10;58.60
62583;DHT22;48641;51.676;5.808;2023-07-28T06:36:28;22.10;58.70
62583;DHT22;48641;51.676;5.808;2023-07-28T06:38:53;22.10;58.80
62583;DHT22;48641;51.676;5.808;2023-07-28T06:41:21;22.10;58.80
62583;DHT22;48641;51.676;5.808;2023-07-28T06:43:47;22.10;58.80
62583;DHT22;48641;51.676;5.808;2023-07-28T06:46:14;22.10;58.90
62583;DHT22;48641;51.676;5.808;2023-07-28T06:48:40;22.10;58.90
62583;DHT22;48641;51.676;5.808;2023-07-28T06:51:06;22.00;58.90
62583;DHT22;48641;51.676;5.808;2023-07-28T06:53:32;22.00;58.90
62583;DHT22;48641;51.676;5.808;2023-07-28T06:55:58;22.00;58.80
62583;DHT22;48641;51.676;5.808;2023-07-28T06:58:23;22.10;58.70
62583;DHT22;48641;51.676;5.808;2023-07-28T07:00:49;22.10;58.60
62583;DHT22;48641;51.676;5.808;2023-07-28T07:03:14;22.10;59.50
62583;DHT22;48641;51.676;5.808;2023-07-28T07:05:40;22.10;58.60
62583;DHT22;48641;51.676;5.808;2023-07-28T07:08:06;22.10;58.80
62583;DHT22;48641;51.676;5.808;2023-07-28T07:10:31;22.10;58.70
62583;DHT22;48641;51.676;5.808;2023-07-28T07:12:57;22.10;58.90
62583;DHT22;48641;51.676;5.808;2023-07-28T07:15:23;22.10;58.70
62583;DHT22;48641;51.676;5.808;2023-07-28T07:17:48;22.10;59.00
62583;DHT22;48641;51.676;5.808;2023-07-28T07:20:14;22.10;59.00
62583;DHT22;48641;51.676;5.808;2023-07-28T07:22:40;22.10;59.20
62583;DHT22;48641;51.676;5.808;2023-07-28T07:25:06;22.00;59.30
62583;DHT22;48641;51.676;5.808;2023-07-28T07:27:32;22.10;59.30
62583;DHT22;48641;51.676;5.808;2023-07-28T07:29:58;22.10;59.30
62583;DHT22;48641;51.676;5.808;2023-07-28T07:32:24;22.10;59.30
62583;DHT22;48641;51.676;5.808;2023-07-28T07:34:49;22.10;59.00
62583;DHT22;48641;51.676;5.808;2023-07-28T07:37:15;22.10;59.10
62583;DHT22;48641;51.676;5.808;2023-07-28T07:39:40;22.10;59.20
62583;DHT22;48641;51.676;5.808;2023-07-28T07:42:09;22.10;59.20
62583;DHT22;48641;51.676;5.808;2023-07-28T07:44:35;22.10;59.10
62583;DHT22;48641;51.676;5.808;2023-07-28T07:47:01;22.10;59.00
62583;DHT22;48641;51.676;5.808;2023-07-28T07:49:36;22.10;59.00
62583;DHT22;48641;51.676;5.808;2023-07-28T07:52:02;22.10;59.10
62583;DHT22;48641;51.676;5.808;2023-07-28T07:54:27;22.10;59.10
62583;DHT22;48641;51.676;5.808;2023-07-28T07:56:53;22.10;59.10
62583;DHT22;48641;51.676;5.808;2023-07-28T07:59:18;22.10;59.00
62583;DHT22;48641;51.676;5.808;2023-07-28T08:01:44;22.10;59.00
62583;DHT22;48641;51.676;5.808;2023-07-28T08:04:10;22.10;59.10
62583;DHT22;48641;51.676;5.808;2023-07-28T08:06:36;22.10;59.10
62583;DHT22;48641;51.676;5.808;2023-07-28T08:09:01;22.10;59.00
62583;DHT22;48641;51.676;5.808;2023-07-28T08:11:28;22.10;59.10
62583;DHT22;48641;51.676;5.808;2023-07-28T08:13:53;22.10;59.00
62583;DHT22;48641;51.676;5.808;2023-07-28T08:16:20;22.10;59.20
62583;DHT22;48641;51.676;5.808;2023-07-28T08:18:46;22.10;59.00
62583;DHT22;48641;51.676;5.808;2023-07-28T08:21:12;22.10;59.00
62583;DHT22;48641;51.676;5.808;2023-07-28T08:23:37;22.10;59.00
62583;DHT22;48641;51.676;5.808;2023-07-28T08:26:03;22.10;59.00
62583;DHT22;48641;51.676;5.808;2023-07-28T08:28:29;22.10;59.50
62583;DHT22;48641;51.676;5.808;2023-07-28T08:30:55;22.10;59.80
62583;DHT22;48641;51.676;5.808;2023-07-28T08:33:24;22.10;59.80
62583;DHT22;48641;51.676;5.808;2023-07-28T08:35:50;22.10;59.70
62583;DHT22;48641;51.676;5.808;2023-07-28T08:38:16;22.10;59.60
62583;DHT22;48641;51.676;5.808;2023-07-28T08:40:43;22.10;59.30
62583;DHT22;48641;51.676;5.808;2023-07-28T08:43:09;22.10;59.50
62583;DHT22;48641;51.676;5.808;2023-07-28T08:45:36;22.10;59.50
62583;DHT22;48641;51.676;5.808;2023-07-28T08:48:02;22.10;59.30
62583;DHT22;48641;51.676;5.808;2023-07-28T08:50:27;22.10;59.30
62583;DHT22;48641;51.676;5.808;2023-07-28T08:52:53;22.10;59.20
62583;DHT22;48641;51.676;5.808;2023-07-28T08:55:19;22.10;59.10
62583;DHT22;48641;51.676;5.808;2023-07-28T08:57:45;22.10;59.10
62583;DHT22;48641;51.676;5.808;2023-07-28T09:00:11;22.10;59.10
62583;DHT22;48641;51.676;5.808;2023-07-28T09:02:40;22.10;59.10
62583;DHT22;48641;51.676;5.808;2023-07-28T09:05:06;22.10;59.10
62583;DHT22;48641;51.676;5.808;2023-07-28T09:07:35;22.10;59.20
62583;DHT22;48641;51.676;5.808;2023-07-28T09:10:04;22.10;59.20
62583;DHT22;48641;51.676;5.808;2023-07-28T09:12:33;22.10;59.20
62583;DHT22;48641;51.676;5.808;2023-07-28T09:14:59;22.10;59.30
62583;DHT22;48641;51.676;5.808;2023-07-28T09:17:25;22.10;59.10
62583;DHT22;48641;51.676;5.808;2023-07-28T09:19:54;22.10;59.40
62583;DHT22;48641;51.676;5.808;2023-07-28T09:22:21;22.10;59.40
62583;DHT22;48641;51.676;5.808;2023-07-28T09:24:47;22.10;59.70
62583;DHT22;48641;51.676;5.808;2023-07-28T09:27:24;22.10;59.60
62583;DHT22;48641;51.676;5.808;2023-07-28T09:29:51;22.20;59.60
62583;DHT22;48641;51.676;5.808;2023-07-28T09:32:29;22.10;59.40
62583;DHT22;48641;51.676;5.808;2023-07-28T09:37:37;22.20;59.20
62583;DHT22;48641;51.676;5.808;2023-07-28T09:40:05;22.10;59.10
62583;DHT22;48641;51.676;5.808;2023-07-28T09:42:32;22.10;59.20
62583;DHT22;48641;51.676;5.808;2023-07-28T09:44:59;22.10;59.20
62583;DHT22;48641;51.676;5.808;2023-07-28T09:47:25;22.10;59.20
62583;DHT22;48641;51.676;5.808;2023-07-28T09:49:53;22.10;59.20
62583;DHT22;48641;51.676;5.808;2023-07-28T09:52:22;22.10;59.20
62583;DHT22;48641;51.676;5.808;2023-07-28T09:54:52;22.10;59.20
62583;DHT22;48641;51.676;5.808;2023-07-28T09:57:20;22.10;59.00
62583;DHT22;48641;51.676;5.808;2023-07-28T09:59:47;22.10;59.00
62583;DHT22;48641;51.676;5.808;2023-07-28T10:02:13;22.10;59.00
62583;DHT22;48641;51.676;5.808;2023-07-28T10:04:40;22.10;59.00
62583;DHT22;48641;51.676;5.808;2023-07-28T10:07:07;22.10;59.00
62583;DHT22;48641;51.676;5.808;2023-07-28T10:09:33;22.10;60.10
62583;DHT22;48641;51.676;5.808;2023-07-28T10:12:00;22.20;59.20
62583;DHT22;48641;51.676;5.808;2023-07-28T10:14:35;22.20;59.10
62583;DHT22;48641;51.676;5.808;2023-07-28T10:17:03;22.20;59.10
62583;DHT22;48641;51.676;5.808;2023-07-28T10:19:38;22.20;59.30
62583;DHT22;48641;51.676;5.808;2023-07-28T10:22:09;22.20;59.50
62583;DHT22;48641;51.676;5.808;2023-07-28T10:24:52;22.20;59.60
62583;DHT22;48641;51.676;5.808;2023-07-28T10:27:31;22.20;59.60
62583;DHT22;48641;51.676;5.808;2023-07-28T10:29:57;22.20;59.70
62583;DHT22;48641;51.676;5.808;2023-07-28T10:32:28;22.10;59.50
62583;DHT22;48641;51.676;5.808;2023-07-28T10:35:21;22.10;59.90
62583;DHT22;48641;51.676;5.808;2023-07-28T10:37:47;22.10;59.90
62583;DHT22;48641;51.676;5.808;2023-07-28T10:40:27;22.10;59.70
62583;DHT22;48641;51.676;5.808;2023-07-28T10:42:55;22.10;59.60
62583;DHT22;48641;51.676;5.808;2023-07-28T10:45:23;22.10;59.60
62583;DHT22;48641;51.676;5.808;2023-07-28T10:47:49;22.10;59.60
62583;DHT22;48641;51.676;5.808;2023-07-28T10:50:15;22.20;59.70
62583;DHT22;48641;51.676;5.808;2023-07-28T10:52:45;22.20;59.60
62583;DHT22;48641;51.676;5.808;2023-07-28T10:55:21;22.20;59.50
62583;DHT22;48641;51.676;5.808;2023-07-28T10:57:50;22.20;59.60
62583;DHT22;48641;51.676;5.808;2023-07-28T11:00:17;22.20;59.60
62583;DHT22;48641;51.676;5.808;2023-07-28T11:02:44;22.20;59.60
62583;DHT22;48641;51.676;5.808;2023-07-28T11:05:12;22.20;59.50
62583;DHT22;48641;51.676;5.808;2023-07-28T11:07:41;22.20;59.50
62583;DHT22;48641;51.676;5.808;2023-07-28T11:10:08;22.20;59.40
62583;DHT22;48641;51.676;5.808;2023-07-28T11:12:34;22.20;59.30
62583;DHT22;48641;51.676;5.808;2023-07-28T11:14:59;22.20;59.40
62583;DHT22;48641;51.676;5.808;2023-07-28T11:17:25;22.20;59.40
62583;DHT22;48641;51.676;5.808;2023-07-28T11:19:52;22.20;59.40
62583;DHT22;48641;51.676;5.808;2023-07-28T11:22:19;22.20;59.50
62583;DHT22;48641;51.676;5.808;2023-07-28T11:24:44;22.30;60.00
62583;DHT22;48641;51.676;5.808;2023-07-28T11:27:11;22.30;60.00
62583;DHT22;48641;51.676;5.808;2023-07-28T11:29:37;22.30;59.90
62583;DHT22;48641;51.676;5.808;2023-07-28T11:32:03;22.30;59.80
62583;DHT22;48641;51.676;5.808;2023-07-28T11:34:35;22.30;59.70
62583;DHT22;48641;51.676;5.808;2023-07-28T11:37:01;22.30;59.60
62583;DHT22;48641;51.676;5.808;2023-07-28T11:39:29;22.30;59.60
62583;DHT22;48641;51.676;5.808;2023-07-28T11:41:56;22.30;59.50
62583;DHT22;48641;51.676;5.808;2023-07-28T11:44:23;22.30;59.50
62583;DHT22;48641;51.676;5.808;2023-07-28T11:46:49;22.30;59.40
62583;DHT22;48641;51.676;5.808;2023-07-28T11:49:19;22.30;59.40
62583;DHT22;48641;51.676;5.808;2023-07-28T11:51:49;22.30;59.60
62583;DHT22;48641;51.676;5.808;2023-07-28T11:54:21;22.40;59.60
62583;DHT22;48641;51.676;5.808;2023-07-28T11:56:48;22.40;59.60
62583;DHT22;48641;51.676;5.808;2023-07-28T11:59:19;22.40;59.50
62583;DHT22;48641;51.676;5.808;2023-07-28T12:01:54;22.40;59.50
62583;DHT22;48641;51.676;5.808;2023-07-28T12:04:32;22.40;59.40
62583;DHT22;48641;51.676;5.808;2023-07-28T12:12:16;22.50;59.30
62583;DHT22;48641;51.676;5.808;2023-07-28T12:14:42;22.40;59.30
62583;DHT22;48641;51.676;5.808;2023-07-28T12:17:15;22.40;59.20
62583;DHT22;48641;51.676;5.808;2023-07-28T12:20:07;22.50;59.20
62583;DHT22;48641;51.676;5.808;2023-07-28T12:22:43;22.50;59.10
62583;DHT22;48641;51.676;5.808;2023-07-28T12:25:12;22.50;59.10
62583;DHT22;48641;51.676;5.808;2023-07-28T12:27:38;22.50;59.20
62583;DHT22;48641;51.676;5.808;2023-07-28T12:30:04;22.50;59.90
62583;DHT22;48641;51.676;5.808;2023-07-28T12:32:30;22.50;59.90
62583;DHT22;48641;51.676;5.808;2023-07-28T12:34:56;22.50;59.70
62583;DHT22;48641;51.676;5.808;2023-07-28T12:37:21;22.60;59.60
62583;DHT22;48641;51.676;5.808;2023-07-28T12:39:47;22.60;59.40
62583;DHT22;48641;51.676;5.808;2023-07-28T12:42:13;22.70;59.30
62583;DHT22;48641;51.676;5.808;2023-07-28T12:44:40;22.70;59.30
62583;DHT22;48641;51.676;5.808;2023-07-28T12:47:06;22.70;59.30
62583;DHT22;48641;51.676;5.808;2023-07-28T12:49:32;22.70;59.20
62583;DHT22;48641;51.676;5.808;2023-07-28T12:52:01;22.70;59.10
62583;DHT22;48641;51.676;5.808;2023-07-28T12:54:28;22.70;59.20
62583;DHT22;48641;51.676;5.808;2023-07-28T12:56:54;22.70;59.10
62583;DHT22;48641;51.676;5.808;2023-07-28T12:59:20;22.60;59.00
62583;DHT22;48641;51.676;5.808;2023-07-28T13:01:46;22.70;59.10
62583;DHT22;48641;51.676;5.808;2023-07-28T13:04:12;22.70;59.10
62583;DHT22;48641;51.676;5.808;2023-07-28T13:06:38;22.60;59.00
62583;DHT22;48641;51.676;5.808;2023-07-28T13:09:03;22.70;59.00
62583;DHT22;48641;51.676;5.808;2023-07-28T13:11:29;22.70;59.00
62583;DHT22;48641;51.676;5.808;2023-07-28T13:13:55;22.70;59.10
62583;DHT22;48641;51.676;5.808;2023-07-28T13:16:21;22.70;60.10
62583;DHT22;48641;51.676;5.808;2023-07-28T13:18:47;22.70;59.10
62583;DHT22;48641;51.676;5.808;2023-07-28T13:21:12;22.80;59.10
62583;DHT22;48641;51.676;5.808;2023-07-28T13:23:39;22.80;59.10
62583;DHT22;48641;51.676;5.808;2023-07-28T13:26:05;22.80;59.10
62583;DHT22;48641;51.676;5.808;2023-07-28T13:28:30;22.80;59.10
62583;DHT22;48641;51.676;5.808;2023-07-28T13:30:56;22.80;59.00
62583;DHT22;48641;51.676;5.808;2023-07-28T13:33:22;22.80;59.00
62583;DHT22;48641;51.676;5.808;2023-07-28T13:35:48;22.70;58.90
62583;DHT22;48641;51.676;5.808;2023-07-28T13:38:14;22.80;59.10
62583;DHT22;48641;51.676;5.808;2023-07-28T13:40:39;22.80;60.10
62583;DHT22;48641;51.676;5.808;2023-07-28T13:43:05;22.70;59.10
62583;DHT22;48641;51.676;5.808;2023-07-28T13:45:30;22.80;59.10
62583;DHT22;48641;51.676;5.808;2023-07-28T13:47:56;22.80;59.10
62583;DHT22;48641;51.676;5.808;2023-07-28T13:50:22;22.80;59.20
62583;DHT22;48641;51.676;5.808;2023-07-28T13:52:48;22.80;59.30
62583;DHT22;48641;51.676;5.808;2023-07-28T13:55:14;22.80;59.30
62583;DHT22;48641;51.676;5.808;2023-07-28T13:57:39;22.80;59.30
62583;DHT22;48641;51.676;5.808;2023-07-28T14:00:06;22.80;59.30
62583;DHT22;48641;51.676;5.808;2023-07-28T14:02:36;22.80;59.30
62583;DHT22;48641;51.676;5.808;2023-07-28T14:05:02;22.80;59.30
62583;DHT22;48641;51.676;5.808;2023-07-28T14:07:27;22.90;59.30
62583;DHT22;48641;51.676;5.808;2023-07-28T14:09:53;22.90;59.20
62583;DHT22;48641;51.676;5.808;2023-07-28T14:12:18;22.90;59.20
62583;DHT22;48641;51.676;5.808;2023-07-28T14:14:44;22.90;59.10
62583;DHT22;48641;51.676;5.808;2023-07-28T14:17:10;22.90;59.10
62583;DHT22;48641;51.676;5.808;2023-07-28T14:19:38;22.90;59.70
62583;DHT22;48641;51.676;5.808;2023-07-28T14:22:04;22.90;59.20
62583;DHT22;48641;51.676;5.808;2023-07-28T14:24:30;22.90;59.30
62583;DHT22;48641;51.676;5.808;2023-07-28T14:26:55;22.90;59.20
62583;DHT22;48641;51.676;5.808;2023-07-28T14:29:21;23.00;59.30
62583;DHT22;48641;51.676;5.808;2023-07-28T14:31:47;23.00;59.40
62583;DHT22;48641;51.676;5.808;2023-07-28T14:34:13;22.90;59.30
62583;DHT22;48641;51.676;5.808;2023-07-28T14:36:39;23.00;59.40
62583;DHT22;48641;51.676;5.808;2023-07-28T14:39:05;23.00;59.40
62583;DHT22;48641;51.676;5.808;2023-07-28T14:41:31;23.00;59.30
62583;DHT22;48641;51.676;5.808;2023-07-28T14:43:57;23.00;59.30
62583;DHT22;48641;51.676;5.808;2023-07-28T14:46:23;23.00;59.40
62583;DHT22;48641;51.676;5.808;2023-07-28T14:48:51;23.00;59.30
62583;DHT22;48641;51.676;5.808;2023-07-28T14:51:17;23.00;59.20
62583;DHT22;48641;51.676;5.808;2023-07-28T14:53:43;23.00;59.30
62583;DHT22;48641;51.676;5.808;2023-07-28T14:56:11;23.00;59.20
62583;DHT22;48641;51.676;5.808;2023-07-28T14:58:36;23.00;59.20
62583;DHT22;48641;51.676;5.808;2023-07-28T15:01:03;23.00;59.20
62583;DHT22;48641;51.676;5.808;2023-07-28T15:03:30;23.10;59.30
62583;DHT22;48641;51.676;5.808;2023-07-28T15:05:56;23.00;59.10
62583;DHT22;48641;51.676;5.808;2023-07-28T15:08:22;23.00;59.10
62583;DHT22;48641;51.676;5.808;2023-07-28T15:10:48;23.10;59.10
62583;DHT22;48641;51.676;5.808;2023-07-28T15:13:13;23.10;59.10
62583;DHT22;48641;51.676;5.808;2023-07-28T15:15:39;23.10;59.00
62583;DHT22;48641;51.676;5.808;2023-07-28T15:18:05;23.10;59.00
62583;DHT22;48641;51.676;5.808;2023-07-28T15:20:31;23.10;59.00
62583;DHT22;48641;51.676;5.808;2023-07-28T15:22:56;23.10;59.10
62583;DHT22;48641;51.676;5.808;2023-07-28T15:25:22;23.10;59.20
62583;DHT22;48641;51.676;5.808;2023-07-28T15:27:48;23.10;59.20
62583;DHT22;48641;51.676;5.808;2023-07-28T15:30:13;23.10;59.10
62583;DHT22;48641;51.676;5.808;2023-07-28T15:32:39;23.10;59.10
62583;DHT22;48641;51.676;5.808;2023-07-28T15:35:05;23.10;59.50
62583;DHT22;48641;51.676;5.808;2023-07-28T15:37:31;23.10;59.50
62583;DHT22;48641;51.676;5.808;2023-07-28T15:39:57;23.10;59.40